sensor_id;sensor_type;location;lat;lon;timestamp;P1;durP1;ratioP1;P2;durP2;ratioP2
43560;SDS011;32305;46.410;17.394;2022-10-17T00:01:02;18.85;;;13.30;;
43560;SDS011;32305;46.410;17.394;2022-10-17T00:03:29;16.02;;;12.77;;
43560;SDS011;32305;46.410;17.394;2022-10-17T00:05:57;16.67;;;12.63;;
43560;SDS011;32305;46.410;17.394;2022-10-17T00:08:24;16.65;;;13.02;;
43560;SDS011;32305;46.410;17.394;2022-10-17T00:10:58;17.25;;;12.10;;
43560;SDS011;32305;46.410;17.394;2022-10-17T00:13:30;19.38;;;13.00;;
43560;SDS011;32305;46.410;17.394;2022-10-17T00:15:58;18.17;;;13.43;;
43560;SDS011;32305;46.410;17.394;2022-10-17T00:18:25;19.38;;;14.13;;
43560;SDS011;32305;46.410;17.394;2022-10-17T00:20:53;18.33;;;13.13;;
43560;SDS011;32305;46.410;17.394;2022-10-17T00:23:20;16.65;;;13.18;;
43560;SDS011;32305;46.410;17.394;2022-10-17T00:25:56;16.75;;;12.68;;
43560;SDS011;32305;46.410;17.394;2022-10-17T00:28:23;16.45;;;12.75;;
43560;SDS011;32305;46.410;17.394;2022-10-17T00:30:58;17.50;;;13.13;;
43560;SDS011;32305;46.410;17.394;2022-10-17T00:33:26;17.33;;;12.23;;
43560;SDS011;32305;46.410;17.394;2022-10-17T00:36:04;16.92;;;13.00;;
43560;SDS011;32305;46.410;17.394;2022-10-17T00:38:40;15.70;;;11.73;;
43560;SDS011;32305;46.410;17.394;2022-10-17T00:41:09;17.17;;;12.63;;
43560;SDS011;32305;46.410;17.394;2022-10-17T00:43:49;17.98;;;12.45;;
43560;SDS011;32305;46.410;17.394;2022-10-17T00:46:34;16.17;;;12.68;;
43560;SDS011;32305;46.410;17.394;2022-10-17T00:49:04;16.23;;;12.50;;
43560;SDS011;32305;46.410;17.394;2022-10-17T00:51:39;17.42;;;13.20;;
43560;SDS011;32305;46.410;17.394;2022-10-17T00:54:10;16.10;;;12.60;;
43560;SDS011;32305;46.410;17.394;2022-10-17T00:56:40;17.92;;;12.30;;
43560;SDS011;32305;46.410;17.394;2022-10-17T00:59:08;18.05;;;13.18;;
43560;SDS011;32305;46.410;17.394;2022-10-17T01:01:39;14.98;;;11.05;;
43560;SDS011;32305;46.410;17.394;2022-10-17T01:06:35;14.82;;;12.18;;
43560;SDS011;32305;46.410;17.394;2022-10-17T01:09:02;15.68;;;11.90;;
43560;SDS011;32305;46.410;17.394;2022-10-17T01:14:33;14.45;;;11.52;;
43560;SDS011;32305;46.410;17.394;2022-10-17T01:17:43;16.92;;;12.35;;
43560;SDS011;32305;46.410;17.394;2022-10-17T01:20:27;17.17;;;12.88;;
43560;SDS011;32305;46.410;17.394;2022-10-17T01:26:27;15.68;;;11.40;;
43560;SDS011;32305;46.410;17.394;2022-10-17T01:29:28;13.70;;;11.50;;
43560;SDS011;32305;46.410;17.394;2022-10-17T01:32:14;16.08;;;11.95;;
43560;SDS011;32305;46.410;17.394;2022-10-17T01:35:07;14.85;;;11.70;;
43560;SDS011;32305;46.410;17.394;2022-10-17T01:37:42;14.25;;;10.85;;
43560;SDS011;32305;46.410;17.394;2022-10-17T01:40:23;13.00;;;10.43;;
43560;SDS011;32305;46.410;17.394;2022-10-17T01:42:57;16.35;;;12.32;;
43560;SDS011;32305;46.410;17.394;2022-10-17T01:45:48;16.13;;;11.40;;
43560;SDS011;32305;46.410;17.394;2022-10-17T01:48:27;14.73;;;11.82;;
43560;SDS011;32305;46.410;17.394;2022-10-17T01:51:02;12.82;;;10.45;;
43560;SDS011;32305;46.410;17.394;2022-10-17T01:53:35;13.45;;;10.50;;
43560;SDS011;32305;46.410;17.394;2022-10-17T01:56:07;14.95;;;10.90;;
43560;SDS011;32305;46.410;17.394;2022-10-17T01:58:42;18.40;;;11.45;;
43560;SDS011;32305;46.410;17.394;2022-10-17T02:01:16;13.93;;;11.15;;
43560;SDS011;32305;46.410;17.394;2022-10-17T02:03:44;16.00;;;11.45;;
43560;SDS011;32305;46.410;17.394;2022-10-17T02:06:14;14.60;;;11.20;;
43560;SDS011;32305;46.410;17.394;2022-10-17T02:08:42;15.32;;;11.38;;
43560;SDS011;32305;46.410;17.394;2022-10-17T02:11:24;13.98;;;10.68;;
43560;SDS011;32305;46.410;17.394;2022-10-17T02:17:02;13.25;;;10.35;;
43560;SDS011;32305;46.410;17.394;2022-10-17T02:19:56;13.43;;;10.27;;
43560;SDS011;32305;46.410;17.394;2022-10-17T02:22:45;15.55;;;10.98;;
43560;SDS011;32305;46.410;17.394;2022-10-17T02:25:30;14.85;;;10.55;;
43560;SDS011;32305;46.410;17.394;2022-10-17T02:28:07;15.18;;;11.05;;
43560;SDS011;32305;46.410;17.394;2022-10-17T02:30:44;12.60;;;9.82;;
43560;SDS011;32305;46.410;17.394;2022-10-17T02:33:38;14.18;;;10.07;;
43560;SDS011;32305;46.410;17.394;2022-10-17T02:36:28;14.68;;;10.98;;
43560;SDS011;32305;46.410;17.394;2022-10-17T02:39:00;12.52;;;10.13;;
43560;SDS011;32305;46.410;17.394;2022-10-17T02:41:29;11.63;;;9.57;;
43560;SDS011;32305;46.410;17.394;2022-10-17T02:43:58;12.23;;;9.48;;
43560;SDS011;32305;46.410;17.394;2022-10-17T02:46:27;10.73;;;9.57;;
43560;SDS011;32305;46.410;17.394;2022-10-17T02:49:00;13.95;;;10.60;;
43560;SDS011;32305;46.410;17.394;2022-10-17T02:51:33;14.13;;;10.27;;
43560;SDS011;32305;46.410;17.394;2022-10-17T02:54:17;13.57;;;10.23;;
43560;SDS011;32305;46.410;17.394;2022-10-17T02:56:51;13.88;;;10.30;;
43560;SDS011;32305;46.410;17.394;2022-10-17T02:59:21;13.75;;;10.50;;
43560;SDS011;32305;46.410;17.394;2022-10-17T03:01:50;12.27;;;9.65;;
43560;SDS011;32305;46.410;17.394;2022-10-17T03:04:18;14.80;;;10.10;;
43560;SDS011;32305;46.410;17.394;2022-10-17T03:06:46;13.55;;;9.82;;
43560;SDS011;32305;46.410;17.394;2022-10-17T03:09:15;12.32;;;9.32;;
43560;SDS011;32305;46.410;17.394;2022-10-17T03:11:42;14.88;;;10.13;;
43560;SDS011;32305;46.410;17.394;2022-10-17T03:14:09;11.40;;;9.40;;
43560;SDS011;32305;46.410;17.394;2022-10-17T03:16:36;11.93;;;9.25;;
43560;SDS011;32305;46.410;17.394;2022-10-17T03:19:03;12.10;;;9.38;;
43560;SDS011;32305;46.410;17.394;2022-10-17T03:21:30;11.48;;;9.32;;
43560;SDS011;32305;46.410;17.394;2022-10-17T03:23:57;11.50;;;9.32;;
43560;SDS011;32305;46.410;17.394;2022-10-17T03:26:24;12.50;;;8.93;;
43560;SDS011;32305;46.410;17.394;2022-10-17T03:28:51;12.20;;;9.18;;
43560;SDS011;32305;46.410;17.394;2022-10-17T03:31:20;12.38;;;9.45;;
43560;SDS011;32305;46.410;17.394;2022-10-17T03:33:47;12.45;;;9.45;;
43560;SDS011;32305;46.410;17.394;2022-10-17T03:36:15;12.35;;;9.48;;
43560;SDS011;32305;46.410;17.394;2022-10-17T03:38:44;13.55;;;9.73;;
43560;SDS011;32305;46.410;17.394;2022-10-17T03:41:11;11.95;;;9.35;;
43560;SDS011;32305;46.410;17.394;2022-10-17T03:43:38;13.73;;;9.50;;
43560;SDS011;32305;46.410;17.394;2022-10-17T03:46:06;9.65;;;8.10;;
43560;SDS011;32305;46.410;17.394;2022-10-17T03:48:33;13.32;;;9.77;;
43560;SDS011;32305;46.410;17.394;2022-10-17T03:51:01;10.80;;;8.50;;
43560;SDS011;32305;46.410;17.394;2022-10-17T03:56:15;11.35;;;8.70;;
43560;SDS011;32305;46.410;17.394;2022-10-17T03:58:49;10.55;;;8.27;;
43560;SDS011;32305;46.410;17.394;2022-10-17T04:01:17;10.07;;;8.32;;
43560;SDS011;32305;46.410;17.394;2022-10-17T04:03:48;11.95;;;8.25;;
43560;SDS011;32305;46.410;17.394;2022-10-17T04:06:17;8.73;;;7.82;;
43560;SDS011;32305;46.410;17.394;2022-10-17T04:08:44;10.35;;;8.13;;
43560;SDS011;32305;46.410;17.394;2022-10-17T04:11:13;11.00;;;8.30;;
43560;SDS011;32305;46.410;17.394;2022-10-17T04:16:11;11.32;;;8.52;;
43560;SDS011;32305;46.410;17.394;2022-10-17T04:18:40;11.02;;;8.85;;
43560;SDS011;32305;46.410;17.394;2022-10-17T04:21:08;8.65;;;7.68;;
43560;SDS011;32305;46.410;17.394;2022-10-17T04:23:36;10.10;;;8.07;;
43560;SDS011;32305;46.410;17.394;2022-10-17T04:26:04;9.65;;;7.85;;
43560;SDS011;32305;46.410;17.394;2022-10-17T04:28:32;11.20;;;8.25;;
43560;SDS011;32305;46.410;17.394;2022-10-17T04:31:01;12.68;;;7.57;;
43560;SDS011;32305;46.410;17.394;2022-10-17T04:33:30;10.25;;;8.23;;
43560;SDS011;32305;46.410;17.394;2022-10-17T04:36:03;10.07;;;7.95;;
43560;SDS011;32305;46.410;17.394;2022-10-17T04:38:32;10.32;;;7.32;;
43560;SDS011;32305;46.410;17.394;2022-10-17T04:41:00;8.77;;;7.72;;
43560;SDS011;32305;46.410;17.394;2022-10-17T04:43:29;10.63;;;7.97;;
43560;SDS011;32305;46.410;17.394;2022-10-17T04:45:57;8.95;;;7.47;;
43560;SDS011;32305;46.410;17.394;2022-10-17T04:48:25;9.57;;;7.38;;
43560;SDS011;32305;46.410;17.394;2022-10-17T04:50:57;8.68;;;7.50;;
43560;SDS011;32305;46.410;17.394;2022-10-17T04:53:25;9.35;;;7.60;;
43560;SDS011;32305;46.410;17.394;2022-10-17T04:55:53;8.10;;;7.00;;
43560;SDS011;32305;46.410;17.394;2022-10-17T04:58:20;9.05;;;7.13;;
43560;SDS011;32305;46.410;17.394;2022-10-17T05:00:47;9.32;;;7.53;;
43560;SDS011;32305;46.410;17.394;2022-10-17T05:03:15;9.38;;;7.57;;
43560;SDS011;32305;46.410;17.394;2022-10-17T05:05:42;10.40;;;7.53;;
43560;SDS011;32305;46.410;17.394;2022-10-17T05:08:10;10.32;;;7.05;;
43560;SDS011;32305;46.410;17.394;2022-10-17T05:10:38;11.68;;;8.63;;
43560;SDS011;32305;46.410;17.394;2022-10-17T05:13:06;9.35;;;7.57;;
43560;SDS011;32305;46.410;17.394;2022-10-17T05:15:34;9.23;;;7.50;;
43560;SDS011;32305;46.410;17.394;2022-10-17T05:18:01;8.32;;;6.93;;
43560;SDS011;32305;46.410;17.394;2022-10-17T05:20:29;10.65;;;7.68;;
43560;SDS011;32305;46.410;17.394;2022-10-17T05:22:59;9.95;;;7.00;;
43560;SDS011;32305;46.410;17.394;2022-10-17T05:25:27;9.02;;;6.90;;
43560;SDS011;32305;46.410;17.394;2022-10-17T05:27:54;9.95;;;7.00;;
43560;SDS011;32305;46.410;17.394;2022-10-17T05:30:21;8.98;;;7.13;;
43560;SDS011;32305;46.410;17.394;2022-10-17T05:32:50;16.45;;;6.72;;
43560;SDS011;32305;46.410;17.394;2022-10-17T05:35:19;11.57;;;7.55;;
43560;SDS011;32305;46.410;17.394;2022-10-17T05:37:47;9.80;;;6.50;;
43560;SDS011;32305;46.410;17.394;2022-10-17T05:40:14;10.55;;;7.32;;
43560;SDS011;32305;46.410;17.394;2022-10-17T05:42:48;11.07;;;7.03;;
43560;SDS011;32305;46.410;17.394;2022-10-17T05:45:15;10.50;;;7.35;;
43560;SDS011;32305;46.410;17.394;2022-10-17T05:47:42;11.43;;;7.00;;
43560;SDS011;32305;46.410;17.394;2022-10-17T05:50:09;10.75;;;7.15;;
43560;SDS011;32305;46.410;17.394;2022-10-17T05:52:36;12.25;;;7.93;;
43560;SDS011;32305;46.410;17.394;2022-10-17T05:55:04;9.25;;;6.95;;
43560;SDS011;32305;46.410;17.394;2022-10-17T05:57:32;10.98;;;7.20;;
43560;SDS011;32305;46.410;17.394;2022-10-17T05:59:59;11.80;;;7.45;;
43560;SDS011;32305;46.410;17.394;2022-10-17T06:02:26;10.75;;;7.95;;
43560;SDS011;32305;46.410;17.394;2022-10-17T06:04:54;10.25;;;7.38;;
43560;SDS011;32305;46.410;17.394;2022-10-17T06:07:21;10.77;;;7.18;;
43560;SDS011;32305;46.410;17.394;2022-10-17T06:09:48;11.60;;;7.28;;
43560;SDS011;32305;46.410;17.394;2022-10-17T06:12:15;11.82;;;8.07;;
43560;SDS011;32305;46.410;17.394;2022-10-17T06:14:43;10.27;;;7.60;;
43560;SDS011;32305;46.410;17.394;2022-10-17T06:17:10;15.65;;;8.20;;
43560;SDS011;32305;46.410;17.394;2022-10-17T06:19:41;10.88;;;7.90;;
43560;SDS011;32305;46.410;17.394;2022-10-17T06:22:10;11.38;;;7.63;;
43560;SDS011;32305;46.410;17.394;2022-10-17T06:24:37;14.52;;;7.55;;
43560;SDS011;32305;46.410;17.394;2022-10-17T06:27:04;10.60;;;7.88;;
43560;SDS011;32305;46.410;17.394;2022-10-17T06:29:37;17.77;;;7.85;;
43560;SDS011;32305;46.410;17.394;2022-10-17T06:32:05;13.10;;;7.50;;
43560;SDS011;32305;46.410;17.394;2022-10-17T06:34:37;9.82;;;7.07;;
43560;SDS011;32305;46.410;17.394;2022-10-17T06:37:05;12.55;;;7.45;;
43560;SDS011;32305;46.410;17.394;2022-10-17T06:39:33;9.68;;;7.25;;
43560;SDS011;32305;46.410;17.394;2022-10-17T06:42:01;11.18;;;7.57;;
43560;SDS011;32305;46.410;17.394;2022-10-17T06:44:29;13.88;;;7.90;;
43560;SDS011;32305;46.410;17.394;2022-10-17T06:47:00;9.65;;;6.82;;
43560;SDS011;32305;46.410;17.394;2022-10-17T06:49:27;14.75;;;7.82;;
43560;SDS011;32305;46.410;17.394;2022-10-17T06:51:55;14.05;;;8.10;;
43560;SDS011;32305;46.410;17.394;2022-10-17T06:54:22;11.00;;;7.63;;
43560;SDS011;32305;46.410;17.394;2022-10-17T06:56:49;10.70;;;7.05;;
43560;SDS011;32305;46.410;17.394;2022-10-17T06:59:16;11.32;;;7.10;;
43560;SDS011;32305;46.410;17.394;2022-10-17T07:01:43;14.93;;;7.60;;
43560;SDS011;32305;46.410;17.394;2022-10-17T07:04:12;12.00;;;7.28;;
43560;SDS011;32305;46.410;17.394;2022-10-17T07:06:39;11.77;;;7.75;;
43560;SDS011;32305;46.410;17.394;2022-10-17T07:09:07;9.15;;;6.78;;
43560;SDS011;32305;46.410;17.394;2022-10-17T07:11:34;11.52;;;6.70;;
43560;SDS011;32305;46.410;17.394;2022-10-17T07:14:02;13.18;;;6.85;;
43560;SDS011;32305;46.410;17.394;2022-10-17T07:16:29;11.82;;;6.45;;
43560;SDS011;32305;46.410;17.394;2022-10-17T07:18:57;12.73;;;7.28;;
43560;SDS011;32305;46.410;17.394;2022-10-17T07:21:24;11.73;;;7.28;;
43560;SDS011;32305;46.410;17.394;2022-10-17T07:23:51;11.93;;;7.57;;
43560;SDS011;32305;46.410;17.394;2022-10-17T07:26:18;9.82;;;6.88;;
43560;SDS011;32305;46.410;17.394;2022-10-17T07:28:46;11.32;;;7.05;;
43560;SDS011;32305;46.410;17.394;2022-10-17T07:31:17;14.27;;;7.10;;
43560;SDS011;32305;46.410;17.394;2022-10-17T07:33:45;11.85;;;6.72;;
43560;SDS011;32305;46.410;17.394;2022-10-17T07:36:17;9.65;;;6.85;;
43560;SDS011;32305;46.410;17.394;2022-10-17T07:38:44;13.68;;;7.50;;
43560;SDS011;32305;46.410;17.394;2022-10-17T07:41:13;11.55;;;6.47;;
43560;SDS011;32305;46.410;17.394;2022-10-17T07:43:46;12.60;;;6.97;;
43560;SDS011;32305;46.410;17.394;2022-10-17T07:46:13;9.90;;;6.75;;
43560;SDS011;32305;46.410;17.394;2022-10-17T07:48:40;12.52;;;7.00;;
43560;SDS011;32305;46.410;17.394;2022-10-17T07:51:08;11.05;;;6.82;;
43560;SDS011;32305;46.410;17.394;2022-10-17T07:53:36;13.20;;;6.78;;
43560;SDS011;32305;46.410;17.394;2022-10-17T07:56:07;10.50;;;6.72;;
43560;SDS011;32305;46.410;17.394;2022-10-17T07:58:35;12.30;;;7.05;;
43560;SDS011;32305;46.410;17.394;2022-10-17T08:01:04;11.00;;;6.65;;
43560;SDS011;32305;46.410;17.394;2022-10-17T08:03:42;8.13;;;6.30;;
43560;SDS011;32305;46.410;17.394;2022-10-17T08:06:11;11.07;;;6.82;;
43560;SDS011;32305;46.410;17.394;2022-10-17T08:08:38;8.00;;;5.97;;
43560;SDS011;32305;46.410;17.394;2022-10-17T08:11:07;10.68;;;6.75;;
43560;SDS011;32305;46.410;17.394;2022-10-17T08:13:35;7.18;;;5.88;;
43560;SDS011;32305;46.410;17.394;2022-10-17T08:16:05;11.95;;;6.35;;
43560;SDS011;32305;46.410;17.394;2022-10-17T08:18:33;8.23;;;6.57;;
43560;SDS011;32305;46.410;17.394;2022-10-17T08:21:02;10.05;;;6.20;;
43560;SDS011;32305;46.410;17.394;2022-10-17T08:23:34;12.30;;;6.43;;
43560;SDS011;32305;46.410;17.394;2022-10-17T08:26:02;11.85;;;6.90;;
43560;SDS011;32305;46.410;17.394;2022-10-17T08:28:33;9.93;;;6.43;;
43560;SDS011;32305;46.410;17.394;2022-10-17T08:31:02;13.20;;;6.40;;
43560;SDS011;32305;46.410;17.394;2022-10-17T08:33:34;10.85;;;5.90;;
43560;SDS011;32305;46.410;17.394;2022-10-17T08:36:02;8.32;;;6.15;;
43560;SDS011;32305;46.410;17.394;2022-10-17T08:38:30;10.55;;;6.30;;
43560;SDS011;32305;46.410;17.394;2022-10-17T08:41:06;9.40;;;6.15;;
43560;SDS011;32305;46.410;17.394;2022-10-17T08:44:06;9.38;;;6.45;;
43560;SDS011;32305;46.410;17.394;2022-10-17T08:46:47;8.63;;;5.88;;
43560;SDS011;32305;46.410;17.394;2022-10-17T08:49:23;11.85;;;6.10;;
43560;SDS011;32305;46.410;17.394;2022-10-17T08:52:09;10.55;;;5.97;;
43560;SDS011;32305;46.410;17.394;2022-10-17T08:54:42;9.52;;;6.00;;
43560;SDS011;32305;46.410;17.394;2022-10-17T08:57:12;9.35;;;6.18;;
43560;SDS011;32305;46.410;17.394;2022-10-17T08:59:42;9.05;;;6.93;;
43560;SDS011;32305;46.410;17.394;2022-10-17T09:02:31;12.45;;;6.13;;
43560;SDS011;32305;46.410;17.394;2022-10-17T09:05:27;8.95;;;6.68;;
43560;SDS011;32305;46.410;17.394;2022-10-17T09:11:23;6.93;;;5.90;;
43560;SDS011;32305;46.410;17.394;2022-10-17T09:14:22;14.23;;;5.93;;
43560;SDS011;32305;46.410;17.394;2022-10-17T09:17:22;9.20;;;6.78;;
43560;SDS011;32305;46.410;17.394;2022-10-17T09:20:17;10.02;;;6.32;;
43560;SDS011;32305;46.410;17.394;2022-10-17T09:23:02;12.75;;;7.07;;
43560;SDS011;32305;46.410;17.394;2022-10-17T09:25:54;12.70;;;6.65;;
43560;SDS011;32305;46.410;17.394;2022-10-17T09:28:28;10.07;;;6.28;;
43560;SDS011;32305;46.410;17.394;2022-10-17T09:31:00;12.30;;;5.90;;
43560;SDS011;32305;46.410;17.394;2022-10-17T09:33:48;7.55;;;5.43;;
43560;SDS011;32305;46.410;17.394;2022-10-17T09:36:28;13.13;;;7.28;;
43560;SDS011;32305;46.410;17.394;2022-10-17T09:39:03;8.35;;;5.95;;
43560;SDS011;32305;46.410;17.394;2022-10-17T09:41:41;10.93;;;7.15;;
43560;SDS011;32305;46.410;17.394;2022-10-17T09:44:21;11.13;;;6.30;;
43560;SDS011;32305;46.410;17.394;2022-10-17T09:46:58;11.35;;;6.55;;
43560;SDS011;32305;46.410;17.394;2022-10-17T09:49:44;8.48;;;5.88;;
43560;SDS011;32305;46.410;17.394;2022-10-17T09:52:13;8.05;;;5.72;;
43560;SDS011;32305;46.410;17.394;2022-10-17T10:00:23;10.15;;;5.60;;
43560;SDS011;32305;46.410;17.394;2022-10-17T10:08:49;9.43;;;5.30;;
43560;SDS011;32305;46.410;17.394;2022-10-17T10:11:22;8.48;;;5.68;;
43560;SDS011;32305;46.410;17.394;2022-10-17T10:14:11;7.65;;;5.45;;
43560;SDS011;32305;46.410;17.394;2022-10-17T10:16:46;8.68;;;5.57;;
43560;SDS011;32305;46.410;17.394;2022-10-17T10:19:28;7.57;;;6.10;;
43560;SDS011;32305;46.410;17.394;2022-10-17T10:21:58;7.05;;;5.20;;
43560;SDS011;32305;46.410;17.394;2022-10-17T10:24:26;7.57;;;5.20;;
43560;SDS011;32305;46.410;17.394;2022-10-17T10:26:57;7.18;;;5.25;;
43560;SDS011;32305;46.410;17.394;2022-10-17T10:29:32;8.45;;;4.82;;
43560;SDS011;32305;46.410;17.394;2022-10-17T10:32:20;11.07;;;4.97;;
43560;SDS011;32305;46.410;17.394;2022-10-17T10:35:02;12.98;;;6.50;;
43560;SDS011;32305;46.410;17.394;2022-10-17T10:37:45;9.10;;;4.82;;
43560;SDS011;32305;46.410;17.394;2022-10-17T10:40:17;7.60;;;5.05;;
43560;SDS011;32305;46.410;17.394;2022-10-17T10:42:49;7.13;;;5.00;;
43560;SDS011;32305;46.410;17.394;2022-10-17T10:45:21;8.90;;;5.70;;
43560;SDS011;32305;46.410;17.394;2022-10-17T10:48:21;5.65;;;5.00;;
43560;SDS011;32305;46.410;17.394;2022-10-17T10:50:53;6.88;;;5.38;;
43560;SDS011;32305;46.410;17.394;2022-10-17T10:53:34;7.57;;;5.30;;
43560;SDS011;32305;46.410;17.394;2022-10-17T10:56:23;8.70;;;5.22;;
43560;SDS011;32305;46.410;17.394;2022-10-17T10:59:13;6.78;;;5.63;;
43560;SDS011;32305;46.410;17.394;2022-10-17T11:01:55;8.75;;;5.40;;
43560;SDS011;32305;46.410;17.394;2022-10-17T11:04:43;6.85;;;5.13;;
43560;SDS011;32305;46.410;17.394;2022-10-17T11:07:39;7.15;;;5.80;;
43560;SDS011;32305;46.410;17.394;2022-10-17T11:10:29;8.95;;;4.70;;
43560;SDS011;32305;46.410;17.394;2022-10-17T11:13:14;5.93;;;4.70;;
43560;SDS011;32305;46.410;17.394;2022-10-17T11:18:55;7.82;;;5.03;;
43560;SDS011;32305;46.410;17.394;2022-10-17T11:21:42;5.80;;;4.72;;
43560;SDS011;32305;46.410;17.394;2022-10-17T11:24:36;5.97;;;4.38;;
43560;SDS011;32305;46.410;17.394;2022-10-17T11:27:26;5.75;;;4.53;;
43560;SDS011;32305;46.410;17.394;2022-10-17T11:29:55;11.77;;;5.30;;
43560;SDS011;32305;46.410;17.394;2022-10-17T11:32:30;8.13;;;4.82;;
43560;SDS011;32305;46.410;17.394;2022-10-17T11:38:07;8.75;;;4.45;;
43560;SDS011;32305;46.410;17.394;2022-10-17T11:40:48;7.82;;;4.45;;
43560;SDS011;32305;46.410;17.394;2022-10-17T11:43:25;6.95;;;4.60;;
43560;SDS011;32305;46.410;17.394;2022-10-17T11:46:15;10.45;;;4.18;;
43560;SDS011;32305;46.410;17.394;2022-10-17T11:49:03;5.95;;;4.22;;
43560;SDS011;32305;46.410;17.394;2022-10-17T11:51:45;6.90;;;5.03;;
43560;SDS011;32305;46.410;17.394;2022-10-17T11:54:35;5.00;;;4.50;;
43560;SDS011;32305;46.410;17.394;2022-10-17T11:57:16;7.83;;;4.60;;
43560;SDS011;32305;46.410;17.394;2022-10-17T12:00:17;6.18;;;4.82;;
43560;SDS011;32305;46.410;17.394;2022-10-17T12:03:06;6.18;;;4.60;;
43560;SDS011;32305;46.410;17.394;2022-10-17T12:06:03;7.95;;;5.10;;
43560;SDS011;32305;46.410;17.394;2022-10-17T12:08:52;7.38;;;4.53;;
43560;SDS011;32305;46.410;17.394;2022-10-17T12:11:39;8.38;;;4.90;;
43560;SDS011;32305;46.410;17.394;2022-10-17T12:17:24;6.70;;;4.78;;
43560;SDS011;32305;46.410;17.394;2022-10-17T12:22:59;4.93;;;4.38;;
43560;SDS011;32305;46.410;17.394;2022-10-17T12:25:51;4.80;;;4.30;;
43560;SDS011;32305;46.410;17.394;2022-10-17T12:28:30;6.05;;;4.78;;
43560;SDS011;32305;46.410;17.394;2022-10-17T12:31:21;8.90;;;4.28;;
43560;SDS011;32305;46.410;17.394;2022-10-17T12:34:00;8.90;;;4.53;;
43560;SDS011;32305;46.410;17.394;2022-10-17T12:36:37;6.32;;;4.50;;
43560;SDS011;32305;46.410;17.394;2022-10-17T12:42:30;10.73;;;4.95;;
43560;SDS011;32305;46.410;17.394;2022-10-17T12:44:58;9.02;;;4.80;;
43560;SDS011;32305;46.410;17.394;2022-10-17T12:47:26;7.63;;;4.72;;
43560;SDS011;32305;46.410;17.394;2022-10-17T12:50:02;6.30;;;4.45;;
43560;SDS011;32305;46.410;17.394;2022-10-17T12:55:22;6.22;;;5.03;;
43560;SDS011;32305;46.410;17.394;2022-10-17T12:58:04;8.00;;;4.60;;
43560;SDS011;32305;46.410;17.394;2022-10-17T13:00:42;4.95;;;4.15;;
43560;SDS011;32305;46.410;17.394;2022-10-17T13:03:45;5.13;;;4.57;;
43560;SDS011;32305;46.410;17.394;2022-10-17T13:06:16;5.68;;;3.92;;
43560;SDS011;32305;46.410;17.394;2022-10-17T13:08:48;4.32;;;3.90;;
43560;SDS011;32305;46.410;17.394;2022-10-17T13:11:29;6.22;;;4.25;;
43560;SDS011;32305;46.410;17.394;2022-10-17T13:14:01;5.88;;;4.40;;
43560;SDS011;32305;46.410;17.394;2022-10-17T13:19:25;7.82;;;4.50;;
43560;SDS011;32305;46.410;17.394;2022-10-17T13:21:59;6.70;;;4.25;;
43560;SDS011;32305;46.410;17.394;2022-10-17T13:24:34;6.32;;;4.18;;
43560;SDS011;32305;46.410;17.394;2022-10-17T13:27:18;6.35;;;4.75;;
43560;SDS011;32305;46.410;17.394;2022-10-17T13:29:53;8.10;;;4.18;;
43560;SDS011;32305;46.410;17.394;2022-10-17T13:32:25;6.82;;;4.38;;
43560;SDS011;32305;46.410;17.394;2022-10-17T13:35:08;7.85;;;4.97;;
43560;SDS011;32305;46.410;17.394;2022-10-17T13:37:41;6.82;;;4.10;;
43560;SDS011;32305;46.410;17.394;2022-10-17T13:40:19;10.63;;;4.40;;
43560;SDS011;32305;46.410;17.394;2022-10-17T13:43:16;6.93;;;4.75;;
43560;SDS011;32305;46.410;17.394;2022-10-17T13:45:45;5.50;;;4.40;;
43560;SDS011;32305;46.410;17.394;2022-10-17T13:48:19;12.65;;;4.80;;
43560;SDS011;32305;46.410;17.394;2022-10-17T13:50:51;8.63;;;4.07;;
43560;SDS011;32305;46.410;17.394;2022-10-17T13:53:33;7.57;;;3.80;;
43560;SDS011;32305;46.410;17.394;2022-10-17T13:56:05;12.60;;;4.30;;
43560;SDS011;32305;46.410;17.394;2022-10-17T13:58:59;4.80;;;4.00;;
43560;SDS011;32305;46.410;17.394;2022-10-17T14:01:30;4.90;;;4.15;;
43560;SDS011;32305;46.410;17.394;2022-10-17T14:03:58;6.47;;;4.15;;
43560;SDS011;32305;46.410;17.394;2022-10-17T14:06:40;4.18;;;3.65;;
43560;SDS011;32305;46.410;17.394;2022-10-17T14:09:26;6.70;;;4.00;;
43560;SDS011;32305;46.410;17.394;2022-10-17T14:12:01;6.87;;;4.37;;
43560;SDS011;32305;46.410;17.394;2022-10-17T14:14:33;6.68;;;4.13;;
43560;SDS011;32305;46.410;17.394;2022-10-17T14:17:22;6.63;;;4.55;;
43560;SDS011;32305;46.410;17.394;2022-10-17T14:19:55;6.40;;;4.10;;
43560;SDS011;32305;46.410;17.394;2022-10-17T14:22:48;6.50;;;4.15;;
43560;SDS011;32305;46.410;17.394;2022-10-17T14:25:36;11.35;;;3.92;;
43560;SDS011;32305;46.410;17.394;2022-10-17T14:28:13;6.17;;;3.90;;
43560;SDS011;32305;46.410;17.394;2022-10-17T14:30:43;5.68;;;4.22;;
43560;SDS011;32305;46.410;17.394;2022-10-17T14:33:28;6.70;;;4.38;;
43560;SDS011;32305;46.410;17.394;2022-10-17T14:35:57;12.23;;;4.43;;
43560;SDS011;32305;46.410;17.394;2022-10-17T14:38:26;10.32;;;5.03;;
43560;SDS011;32305;46.410;17.394;2022-10-17T14:40:57;5.63;;;4.07;;
43560;SDS011;32305;46.410;17.394;2022-10-17T14:44:00;8.98;;;3.97;;
43560;SDS011;32305;46.410;17.394;2022-10-17T14:46:35;7.47;;;4.75;;
43560;SDS011;32305;46.410;17.394;2022-10-17T14:49:05;7.68;;;3.97;;
43560;SDS011;32305;46.410;17.394;2022-10-17T14:54:50;5.93;;;3.95;;
43560;SDS011;32305;46.410;17.394;2022-10-17T14:57:39;5.30;;;3.95;;
43560;SDS011;32305;46.410;17.394;2022-10-17T15:00:12;8.23;;;3.88;;
43560;SDS011;32305;46.410;17.394;2022-10-17T15:02:41;5.57;;;3.78;;
43560;SDS011;32305;46.410;17.394;2022-10-17T15:05:08;10.15;;;3.88;;
43560;SDS011;32305;46.410;17.394;2022-10-17T15:07:39;9.73;;;3.95;;
43560;SDS011;32305;46.410;17.394;2022-10-17T15:10:09;12.98;;;3.90;;
43560;SDS011;32305;46.410;17.394;2022-10-17T15:12:48;6.90;;;4.03;;
43560;SDS011;32305;46.410;17.394;2022-10-17T15:15:29;7.53;;;4.13;;
43560;SDS011;32305;46.410;17.394;2022-10-17T15:17:57;8.27;;;4.35;;
43560;SDS011;32305;46.410;17.394;2022-10-17T15:20:25;7.88;;;3.90;;
43560;SDS011;32305;46.410;17.394;2022-10-17T15:22:56;7.55;;;4.57;;
43560;SDS011;32305;46.410;17.394;2022-10-17T15:25:26;6.78;;;4.10;;
43560;SDS011;32305;46.410;17.394;2022-10-17T15:27:54;7.95;;;4.07;;
43560;SDS011;32305;46.410;17.394;2022-10-17T15:30:22;6.55;;;4.13;;
43560;SDS011;32305;46.410;17.394;2022-10-17T15:32:51;6.57;;;3.80;;
43560;SDS011;32305;46.410;17.394;2022-10-17T15:35:19;9.75;;;4.70;;
43560;SDS011;32305;46.410;17.394;2022-10-17T15:37:47;7.65;;;4.00;;
43560;SDS011;32305;46.410;17.394;2022-10-17T15:40:16;8.48;;;4.25;;
43560;SDS011;32305;46.410;17.394;2022-10-17T15:42:45;7.55;;;4.60;;
43560;SDS011;32305;46.410;17.394;2022-10-17T15:45:13;13.32;;;4.47;;
43560;SDS011;32305;46.410;17.394;2022-10-17T15:47:42;8.18;;;4.43;;
43560;SDS011;32305;46.410;17.394;2022-10-17T15:50:15;10.10;;;4.68;;
43560;SDS011;32305;46.410;17.394;2022-10-17T15:52:43;8.30;;;4.03;;
43560;SDS011;32305;46.410;17.394;2022-10-17T15:55:12;7.18;;;3.83;;
43560;SDS011;32305;46.410;17.394;2022-10-17T15:57:40;11.27;;;4.50;;
43560;SDS011;32305;46.410;17.394;2022-10-17T16:00:19;4.95;;;3.58;;
43560;SDS011;32305;46.410;17.394;2022-10-17T16:02:48;15.75;;;5.18;;